sensor_id;sensor_type;location;lat;lon;timestamp;P1;durP1;ratioP1;P2;durP2;ratioP2
29402;SDS011;16382;59.942;30.472;2023-03-12T00:01:10;19.33;;;12.02;;
29402;SDS011;16382;59.942;30.472;2023-03-12T00:03:43;17.70;;;12.15;;
29402;SDS011;16382;59.942;30.472;2023-03-12T00:06:11;21.05;;;12.80;;
29402;SDS011;16382;59.942;30.472;2023-03-12T00:08:39;23.63;;;12.90;;
29402;SDS011;16382;59.942;30.472;2023-03-12T00:11:07;18.35;;;12.15;;
29402;SDS011;16382;59.942;30.472;2023-03-12T00:13:36;18.70;;;12.52;;
29402;SDS011;16382;59.942;30.472;2023-03-12T00:16:05;23.30;;;12.80;;
29402;SDS011;16382;59.942;30.472;2023-03-12T00:18:34;20.63;;;12.05;;
29402;SDS011;16382;59.942;30.472;2023-03-12T00:21:04;19.38;;;13.35;;
29402;SDS011;16382;59.942;30.472;2023-03-12T00:23:32;19.92;;;12.65;;
29402;SDS011;16382;59.942;30.472;2023-03-12T00:26:00;19.35;;;12.80;;
29402;SDS011;16382;59.942;30.472;2023-03-12T00:28:29;22.73;;;12.85;;
29402;SDS011;16382;59.942;30.472;2023-03-12T00:30:57;22.75;;;13.38;;
29402;SDS011;16382;59.942;30.472;2023-03-12T00:33:24;20.48;;;12.63;;
29402;SDS011;16382;59.942;30.472;2023-03-12T00:35:52;22.27;;;12.98;;
29402;SDS011;16382;59.942;30.472;2023-03-12T00:38:22;24.58;;;13.80;;
29402;SDS011;16382;59.942;30.472;2023-03-12T00:40:49;20.08;;;13.43;;
29402;SDS011;16382;59.942;30.472;2023-03-12T00:43:17;19.15;;;13.15;;
29402;SDS011;16382;59.942;30.472;2023-03-12T00:45:44;23.05;;;14.20;;
29402;SDS011;16382;59.942;30.472;2023-03-12T00:48:11;29.13;;;15.00;;
29402;SDS011;16382;59.942;30.472;2023-03-12T00:50:39;23.60;;;14.18;;
29402;SDS011;16382;59.942;30.472;2023-03-12T00:53:06;27.08;;;15.43;;
29402;SDS011;16382;59.942;30.472;2023-03-12T00:55:35;22.52;;;14.40;;
29402;SDS011;16382;59.942;30.472;2023-03-12T00:58:03;22.52;;;14.80;;
29402;SDS011;16382;59.942;30.472;2023-03-12T01:00:30;21.48;;;14.02;;
29402;SDS011;16382;59.942;30.472;2023-03-12T01:02:58;23.05;;;14.80;;
29402;SDS011;16382;59.942;30.472;2023-03-12T01:05:26;22.05;;;14.02;;
29402;SDS011;16382;59.942;30.472;2023-03-12T01:07:53;25.98;;;14.88;;
29402;SDS011;16382;59.942;30.472;2023-03-12T01:10:21;22.75;;;14.45;;
29402;SDS011;16382;59.942;30.472;2023-03-12T01:12:50;25.92;;;15.40;;
29402;SDS011;16382;59.942;30.472;2023-03-12T01:15:17;22.08;;;14.10;;
29402;SDS011;16382;59.942;30.472;2023-03-12T01:17:45;24.30;;;15.02;;
29402;SDS011;16382;59.942;30.472;2023-03-12T01:20:12;26.38;;;15.15;;
29402;SDS011;16382;59.942;30.472;2023-03-12T01:22:40;29.08;;;15.38;;
29402;SDS011;16382;59.942;30.472;2023-03-12T01:25:08;22.58;;;15.45;;
29402;SDS011;16382;59.942;30.472;2023-03-12T01:27:37;26.23;;;16.10;;
29402;SDS011;16382;59.942;30.472;2023-03-12T01:30:07;25.95;;;15.77;;
29402;SDS011;16382;59.942;30.472;2023-03-12T01:32:36;25.00;;;16.30;;
29402;SDS011;16382;59.942;30.472;2023-03-12T01:35:04;25.85;;;16.00;;
29402;SDS011;16382;59.942;30.472;2023-03-12T01:37:32;24.55;;;15.55;;
29402;SDS011;16382;59.942;30.472;2023-03-12T01:39:59;26.35;;;15.20;;
29402;SDS011;16382;59.942;30.472;2023-03-12T01:42:27;30.00;;;17.23;;
29402;SDS011;16382;59.942;30.472;2023-03-12T01:44:55;30.65;;;17.35;;
29402;SDS011;16382;59.942;30.472;2023-03-12T01:47:30;30.17;;;17.40;;
29402;SDS011;16382;59.942;30.472;2023-03-12T01:50:05;31.40;;;18.65;;
29402;SDS011;16382;59.942;30.472;2023-03-12T01:52:34;30.05;;;18.75;;
29402;SDS011;16382;59.942;30.472;2023-03-12T01:55:06;32.20;;;18.83;;
29402;SDS011;16382;59.942;30.472;2023-03-12T01:57:40;33.40;;;19.40;;
29402;SDS011;16382;59.942;30.472;2023-03-12T02:00:12;32.60;;;20.27;;
29402;SDS011;16382;59.942;30.472;2023-03-12T02:02:46;36.58;;;21.00;;
29402;SDS011;16382;59.942;30.472;2023-03-12T02:05:23;39.53;;;22.00;;
29402;SDS011;16382;59.942;30.472;2023-03-12T02:07:55;38.72;;;23.02;;
29402;SDS011;16382;59.942;30.472;2023-03-12T02:10:22;36.83;;;21.73;;
29402;SDS011;16382;59.942;30.472;2023-03-12T02:12:51;36.70;;;21.67;;
29402;SDS011;16382;59.942;30.472;2023-03-12T02:15:19;37.40;;;21.27;;
29402;SDS011;16382;59.942;30.472;2023-03-12T02:17:49;37.15;;;20.40;;
29402;SDS011;16382;59.942;30.472;2023-03-12T02:20:19;34.78;;;20.08;;
29402;SDS011;16382;59.942;30.472;2023-03-12T02:22:54;29.98;;;18.38;;
29402;SDS011;16382;59.942;30.472;2023-03-12T02:25:33;33.90;;;20.08;;
29402;SDS011;16382;59.942;30.472;2023-03-12T02:28:05;30.40;;;18.20;;
29402;SDS011;16382;59.942;30.472;2023-03-12T02:30:37;28.05;;;17.15;;
29402;SDS011;16382;59.942;30.472;2023-03-12T02:33:07;32.92;;;17.15;;
29402;SDS011;16382;59.942;30.472;2023-03-12T02:35:36;24.23;;;15.20;;
29402;SDS011;16382;59.942;30.472;2023-03-12T02:41:14;28.40;;;15.80;;
29402;SDS011;16382;59.942;30.472;2023-03-12T02:43:46;27.45;;;16.25;;
29402;SDS011;16382;59.942;30.472;2023-03-12T02:46:16;26.63;;;15.68;;
29402;SDS011;16382;59.942;30.472;2023-03-12T02:48:44;19.65;;;11.98;;
29402;SDS011;16382;59.942;30.472;2023-03-12T02:51:11;25.77;;;15.20;;
29402;SDS011;16382;59.942;30.472;2023-03-12T02:53:39;24.58;;;15.88;;
29402;SDS011;16382;59.942;30.472;2023-03-12T02:56:06;28.20;;;14.95;;
29402;SDS011;16382;59.942;30.472;2023-03-12T02:58:35;23.00;;;14.07;;
29402;SDS011;16382;59.942;30.472;2023-03-12T03:01:03;27.10;;;15.63;;
29402;SDS011;16382;59.942;30.472;2023-03-12T03:03:31;23.02;;;14.57;;
29402;SDS011;16382;59.942;30.472;2023-03-12T03:05:58;24.73;;;15.35;;
29402;SDS011;16382;59.942;30.472;2023-03-12T03:08:26;24.10;;;14.88;;
29402;SDS011;16382;59.942;30.472;2023-03-12T03:10:53;21.55;;;13.82;;
29402;SDS011;16382;59.942;30.472;2023-03-12T03:13:21;26.85;;;14.43;;
29402;SDS011;16382;59.942;30.472;2023-03-12T03:15:50;19.65;;;12.75;;
29402;SDS011;16382;59.942;30.472;2023-03-12T03:18:18;23.85;;;14.75;;
29402;SDS011;16382;59.942;30.472;2023-03-12T03:20:46;21.02;;;12.73;;
29402;SDS011;16382;59.942;30.472;2023-03-12T03:23:21;19.13;;;11.80;;
29402;SDS011;16382;59.942;30.472;2023-03-12T03:25:49;17.65;;;10.90;;
29402;SDS011;16382;59.942;30.472;2023-03-12T03:28:17;16.45;;;10.38;;
29402;SDS011;16382;59.942;30.472;2023-03-12T03:30:45;18.05;;;11.65;;
29402;SDS011;16382;59.942;30.472;2023-03-12T03:33:14;18.75;;;12.15;;
29402;SDS011;16382;59.942;30.472;2023-03-12T03:35:41;13.63;;;9.95;;
29402;SDS011;16382;59.942;30.472;2023-03-12T03:38:09;22.27;;;11.90;;
29402;SDS011;16382;59.942;30.472;2023-03-12T03:40:37;18.45;;;11.55;;
29402;SDS011;16382;59.942;30.472;2023-03-12T03:43:04;16.27;;;9.73;;
29402;SDS011;16382;59.942;30.472;2023-03-12T03:45:32;19.23;;;10.68;;
29402;SDS011;16382;59.942;30.472;2023-03-12T03:48:00;13.25;;;9.55;;
29402;SDS011;16382;59.942;30.472;2023-03-12T03:50:29;14.05;;;9.70;;
29402;SDS011;16382;59.942;30.472;2023-03-12T03:52:57;15.10;;;9.20;;
29402;SDS011;16382;59.942;30.472;2023-03-12T03:55:25;13.45;;;8.30;;
29402;SDS011;16382;59.942;30.472;2023-03-12T03:57:52;14.82;;;8.77;;
29402;SDS011;16382;59.942;30.472;2023-03-12T04:00:20;15.90;;;9.93;;
29402;SDS011;16382;59.942;30.472;2023-03-12T04:02:50;14.55;;;11.05;;
29402;SDS011;16382;59.942;30.472;2023-03-12T04:05:18;13.10;;;8.98;;
29402;SDS011;16382;59.942;30.472;2023-03-12T04:07:50;13.07;;;7.88;;
29402;SDS011;16382;59.942;30.472;2023-03-12T04:10:22;12.45;;;9.32;;
29402;SDS011;16382;59.942;30.472;2023-03-12T04:12:50;14.30;;;9.05;;
29402;SDS011;16382;59.942;30.472;2023-03-12T04:15:18;13.98;;;8.75;;
29402;SDS011;16382;59.942;30.472;2023-03-12T04:17:47;11.85;;;8.95;;
29402;SDS011;16382;59.942;30.472;2023-03-12T04:20:15;14.05;;;8.07;;
29402;SDS011;16382;59.942;30.472;2023-03-12T04:22:43;13.65;;;8.35;;
29402;SDS011;16382;59.942;30.472;2023-03-12T04:25:12;10.77;;;7.20;;
29402;SDS011;16382;59.942;30.472;2023-03-12T04:27:39;11.88;;;7.80;;
29402;SDS011;16382;59.942;30.472;2023-03-12T04:30:07;12.43;;;7.35;;
29402;SDS011;16382;59.942;30.472;2023-03-12T04:32:37;13.95;;;7.55;;
29402;SDS011;16382;59.942;30.472;2023-03-12T04:35:05;12.65;;;8.07;;
29402;SDS011;16382;59.942;30.472;2023-03-12T04:37:33;10.32;;;8.05;;
29402;SDS011;16382;59.942;30.472;2023-03-12T04:40:01;11.50;;;7.45;;
29402;SDS011;16382;59.942;30.472;2023-03-12T04:42:34;12.13;;;7.38;;
29402;SDS011;16382;59.942;30.472;2023-03-12T04:45:03;12.93;;;7.13;;
29402;SDS011;16382;59.942;30.472;2023-03-12T04:47:36;9.63;;;8.00;;
29402;SDS011;16382;59.942;30.472;2023-03-12T04:50:04;14.48;;;8.07;;
29402;SDS011;16382;59.942;30.472;2023-03-12T04:52:33;12.45;;;7.43;;
29402;SDS011;16382;59.942;30.472;2023-03-12T04:55:04;9.68;;;6.93;;
29402;SDS011;16382;59.942;30.472;2023-03-12T04:57:35;12.32;;;7.10;;
29402;SDS011;16382;59.942;30.472;2023-03-12T05:00:03;13.23;;;7.00;;
29402;SDS011;16382;59.942;30.472;2023-03-12T05:02:35;12.68;;;7.90;;
29402;SDS011;16382;59.942;30.472;2023-03-12T05:05:03;13.63;;;7.93;;
29402;SDS011;16382;59.942;30.472;2023-03-12T05:07:32;11.80;;;7.35;;
29402;SDS011;16382;59.942;30.472;2023-03-12T05:10:00;11.52;;;7.40;;
29402;SDS011;16382;59.942;30.472;2023-03-12T05:12:29;14.00;;;7.50;;
29402;SDS011;16382;59.942;30.472;2023-03-12T05:14:58;12.75;;;7.47;;
29402;SDS011;16382;59.942;30.472;2023-03-12T05:17:26;10.77;;;7.07;;
29402;SDS011;16382;59.942;30.472;2023-03-12T05:19:53;10.00;;;7.13;;
29402;SDS011;16382;59.942;30.472;2023-03-12T05:22:21;17.80;;;7.60;;
29402;SDS011;16382;59.942;30.472;2023-03-12T05:24:48;10.05;;;6.88;;
29402;SDS011;16382;59.942;30.472;2023-03-12T05:27:17;11.68;;;6.82;;
29402;SDS011;16382;59.942;30.472;2023-03-12T05:29:45;12.05;;;7.03;;
29402;SDS011;16382;59.942;30.472;2023-03-12T05:32:14;9.93;;;6.90;;
29402;SDS011;16382;59.942;30.472;2023-03-12T05:34:42;9.40;;;6.55;;
29402;SDS011;16382;59.942;30.472;2023-03-12T05:37:09;11.18;;;7.53;;
29402;SDS011;16382;59.942;30.472;2023-03-12T05:39:37;7.55;;;5.78;;
29402;SDS011;16382;59.942;30.472;2023-03-12T05:42:13;11.07;;;6.70;;
29402;SDS011;16382;59.942;30.472;2023-03-12T05:44:42;10.55;;;6.32;;
29402;SDS011;16382;59.942;30.472;2023-03-12T05:47:15;8.75;;;6.20;;
29402;SDS011;16382;59.942;30.472;2023-03-12T05:49:44;9.70;;;6.65;;
29402;SDS011;16382;59.942;30.472;2023-03-12T05:52:12;10.27;;;7.25;;
29402;SDS011;16382;59.942;30.472;2023-03-12T05:54:41;8.52;;;5.07;;
29402;SDS011;16382;59.942;30.472;2023-03-12T05:57:10;9.57;;;5.00;;
29402;SDS011;16382;59.942;30.472;2023-03-12T05:59:37;6.72;;;4.70;;
29402;SDS011;16382;59.942;30.472;2023-03-12T06:02:06;5.25;;;3.90;;
29402;SDS011;16382;59.942;30.472;2023-03-12T06:04:35;5.97;;;4.60;;
29402;SDS011;16382;59.942;30.472;2023-03-12T06:07:04;7.70;;;4.65;;
29402;SDS011;16382;59.942;30.472;2023-03-12T06:09:34;6.63;;;4.53;;
29402;SDS011;16382;59.942;30.472;2023-03-12T06:12:02;6.00;;;4.15;;
29402;SDS011;16382;59.942;30.472;2023-03-12T06:14:32;5.88;;;4.45;;
29402;SDS011;16382;59.942;30.472;2023-03-12T06:17:00;4.35;;;3.65;;
29402;SDS011;16382;59.942;30.472;2023-03-12T06:19:28;5.43;;;3.85;;
29402;SDS011;16382;59.942;30.472;2023-03-12T06:21:59;4.97;;;4.15;;
29402;SDS011;16382;59.942;30.472;2023-03-12T06:24:28;4.22;;;3.80;;
29402;SDS011;16382;59.942;30.472;2023-03-12T06:27:00;5.32;;;3.80;;
29402;SDS011;16382;59.942;30.472;2023-03-12T06:29:30;5.75;;;4.38;;
29402;SDS011;16382;59.942;30.472;2023-03-12T06:31:57;6.60;;;4.30;;
29402;SDS011;16382;59.942;30.472;2023-03-12T06:34:25;3.85;;;3.45;;
29402;SDS011;16382;59.942;30.472;2023-03-12T06:36:53;5.82;;;4.03;;
29402;SDS011;16382;59.942;30.472;2023-03-12T06:39:23;6.30;;;2.92;;
29402;SDS011;16382;59.942;30.472;2023-03-12T06:41:51;4.35;;;3.08;;
29402;SDS011;16382;59.942;30.472;2023-03-12T06:44:18;2.75;;;2.40;;
29402;SDS011;16382;59.942;30.472;2023-03-12T06:46:46;4.28;;;3.08;;
29402;SDS011;16382;59.942;30.472;2023-03-12T06:49:13;3.80;;;2.78;;
29402;SDS011;16382;59.942;30.472;2023-03-12T06:51:41;4.35;;;2.53;;
29402;SDS011;16382;59.942;30.472;2023-03-12T06:54:09;5.03;;;2.45;;
29402;SDS011;16382;59.942;30.472;2023-03-12T06:56:38;3.40;;;2.50;;
29402;SDS011;16382;59.942;30.472;2023-03-12T06:59:08;3.17;;;2.65;;
29402;SDS011;16382;59.942;30.472;2023-03-12T07:01:36;4.50;;;3.05;;
29402;SDS011;16382;59.942;30.472;2023-03-12T07:04:03;4.40;;;2.03;;
29402;SDS011;16382;59.942;30.472;2023-03-12T07:06:31;4.45;;;3.30;;
29402;SDS011;16382;59.942;30.472;2023-03-12T07:08:58;5.25;;;3.05;;
29402;SDS011;16382;59.942;30.472;2023-03-12T07:11:26;5.00;;;2.42;;
29402;SDS011;16382;59.942;30.472;2023-03-12T07:13:58;2.50;;;2.30;;
29402;SDS011;16382;59.942;30.472;2023-03-12T07:16:26;3.60;;;2.95;;
29402;SDS011;16382;59.942;30.472;2023-03-12T07:18:55;3.20;;;2.55;;
29402;SDS011;16382;59.942;30.472;2023-03-12T07:21:23;17.10;;;8.25;;
29402;SDS011;16382;59.942;30.472;2023-03-12T07:23:57;3.83;;;3.00;;
29402;SDS011;16382;59.942;30.472;2023-03-12T07:26:30;3.13;;;1.75;;
29402;SDS011;16382;59.942;30.472;2023-03-12T07:28:58;5.68;;;2.47;;
29402;SDS011;16382;59.942;30.472;2023-03-12T07:31:26;3.05;;;2.53;;
29402;SDS011;16382;59.942;30.472;2023-03-12T07:33:54;2.90;;;2.60;;
29402;SDS011;16382;59.942;30.472;2023-03-12T07:36:21;3.10;;;2.28;;
29402;SDS011;16382;59.942;30.472;2023-03-12T07:38:49;3.50;;;2.67;;
29402;SDS011;16382;59.942;30.472;2023-03-12T07:41:17;5.75;;;2.30;;
29402;SDS011;16382;59.942;30.472;2023-03-12T07:43:44;3.17;;;2.50;;
29402;SDS011;16382;59.942;30.472;2023-03-12T07:46:13;5.25;;;2.55;;
29402;SDS011;16382;59.942;30.472;2023-03-12T07:48:42;2.92;;;2.45;;
29402;SDS011;16382;59.942;30.472;2023-03-12T07:51:11;3.25;;;2.30;;
29402;SDS011;16382;59.942;30.472;2023-03-12T07:53:38;3.15;;;2.53;;
29402;SDS011;16382;59.942;30.472;2023-03-12T07:58:51;2.90;;;1.95;;
29402;SDS011;16382;59.942;30.472;2023-03-12T08:01:24;3.30;;;2.13;;
29402;SDS011;16382;59.942;30.472;2023-03-12T08:04:03;2.78;;;2.03;;
29402;SDS011;16382;59.942;30.472;2023-03-12T08:06:33;2.55;;;2.35;;
29402;SDS011;16382;59.942;30.472;2023-03-12T08:09:03;2.63;;;2.42;;
29402;SDS011;16382;59.942;30.472;2023-03-12T08:11:31;2.53;;;2.10;;
29402;SDS011;16382;59.942;30.472;2023-03-12T08:14:04;2.97;;;2.47;;
29402;SDS011;16382;59.942;30.472;2023-03-12T08:19:03;3.33;;;2.30;;
29402;SDS011;16382;59.942;30.472;2023-03-12T08:21:32;3.17;;;2.10;;
29402;SDS011;16382;59.942;30.472;2023-03-12T08:23:59;3.65;;;1.75;;
29402;SDS011;16382;59.942;30.472;2023-03-12T08:26:30;2.88;;;2.60;;
29402;SDS011;16382;59.942;30.472;2023-03-12T08:28:58;5.93;;;2.22;;
29402;SDS011;16382;59.942;30.472;2023-03-12T08:31:26;3.55;;;2.50;;
29402;SDS011;16382;59.942;30.472;2023-03-12T08:33:55;3.47;;;2.95;;
29402;SDS011;16382;59.942;30.472;2023-03-12T08:36:23;4.30;;;2.40;;
29402;SDS011;16382;59.942;30.472;2023-03-12T08:38:51;4.18;;;2.30;;
29402;SDS011;16382;59.942;30.472;2023-03-12T08:41:19;2.50;;;2.30;;
29402;SDS011;16382;59.942;30.472;2023-03-12T08:43:47;3.20;;;2.38;;
29402;SDS011;16382;59.942;30.472;2023-03-12T08:46:14;4.03;;;2.10;;
29402;SDS011;16382;59.942;30.472;2023-03-12T08:48:42;6.78;;;3.08;;
29402;SDS011;16382;59.942;30.472;2023-03-12T08:51:11;5.18;;;2.88;;
29402;SDS011;16382;59.942;30.472;2023-03-12T08:53:39;5.43;;;3.08;;
29402;SDS011;16382;59.942;30.472;2023-03-12T08:56:06;3.17;;;2.40;;
29402;SDS011;16382;59.942;30.472;2023-03-12T08:58:34;3.00;;;2.35;;
29402;SDS011;16382;59.942;30.472;2023-03-12T09:01:06;3.33;;;2.38;;
29402;SDS011;16382;59.942;30.472;2023-03-12T09:03:35;3.60;;;2.47;;
29402;SDS011;16382;59.942;30.472;2023-03-12T09:06:03;6.32;;;2.53;;
29402;SDS011;16382;59.942;30.472;2023-03-12T09:08:35;3.10;;;2.40;;
29402;SDS011;16382;59.942;30.472;2023-03-12T09:11:02;3.40;;;2.50;;
29402;SDS011;16382;59.942;30.472;2023-03-12T09:13:31;5.57;;;2.53;;
29402;SDS011;16382;59.942;30.472;2023-03-12T09:15:58;3.05;;;2.60;;
29402;SDS011;16382;59.942;30.472;2023-03-12T09:18:27;2.45;;;2.25;;
29402;SDS011;16382;59.942;30.472;2023-03-12T09:20:55;6.43;;;2.40;;
29402;SDS011;16382;59.942;30.472;2023-03-12T09:23:24;6.25;;;2.38;;
29402;SDS011;16382;59.942;30.472;2023-03-12T09:25:53;2.50;;;2.30;;
29402;SDS011;16382;59.942;30.472;2023-03-12T09:28:21;4.63;;;2.28;;
29402;SDS011;16382;59.942;30.472;2023-03-12T09:30:50;4.47;;;2.08;;
29402;SDS011;16382;59.942;30.472;2023-03-12T09:33:18;2.45;;;2.08;;
29402;SDS011;16382;59.942;30.472;2023-03-12T09:35:53;6.13;;;2.75;;
29402;SDS011;16382;59.942;30.472;2023-03-12T09:38:22;4.05;;;2.00;;
29402;SDS011;16382;59.942;30.472;2023-03-12T09:40:51;4.35;;;2.05;;
29402;SDS011;16382;59.942;30.472;2023-03-12T09:43:26;4.85;;;2.15;;
29402;SDS011;16382;59.942;30.472;2023-03-12T09:46:08;3.67;;;2.70;;
29402;SDS011;16382;59.942;30.472;2023-03-12T09:48:50;2.88;;;2.42;;
29402;SDS011;16382;59.942;30.472;2023-03-12T09:51:26;3.42;;;2.40;;
29402;SDS011;16382;59.942;30.472;2023-03-12T09:53:59;2.70;;;1.27;;
29402;SDS011;16382;59.942;30.472;2023-03-12T09:56:32;5.82;;;2.45;;
29402;SDS011;16382;59.942;30.472;2023-03-12T09:59:00;2.88;;;2.20;;
29402;SDS011;16382;59.942;30.472;2023-03-12T10:01:33;2.70;;;2.15;;
29402;SDS011;16382;59.942;30.472;2023-03-12T10:04:16;4.63;;;2.67;;
29402;SDS011;16382;59.942;30.472;2023-03-12T10:06:51;2.70;;;1.80;;
29402;SDS011;16382;59.942;30.472;2023-03-12T10:09:40;1.92;;;1.75;;
29402;SDS011;16382;59.942;30.472;2023-03-12T10:12:31;3.28;;;2.47;;
29402;SDS011;16382;59.942;30.472;2023-03-12T10:15:14;2.30;;;2.00;;
29402;SDS011;16382;59.942;30.472;2023-03-12T10:17:56;4.63;;;2.55;;
29402;SDS011;16382;59.942;30.472;2023-03-12T10:23:33;4.43;;;2.47;;
29402;SDS011;16382;59.942;30.472;2023-03-12T10:26:23;4.97;;;2.15;;
29402;SDS011;16382;59.942;30.472;2023-03-12T10:29:03;2.95;;;2.13;;
29402;SDS011;16382;59.942;30.472;2023-03-12T10:31:44;4.28;;;2.50;;
29402;SDS011;16382;59.942;30.472;2023-03-12T10:34:19;3.15;;;2.00;;
29402;SDS011;16382;59.942;30.472;2023-03-12T10:36:51;2.33;;;1.70;;
29402;SDS011;16382;59.942;30.472;2023-03-12T10:39:25;5.50;;;2.08;;
29402;SDS011;16382;59.942;30.472;2023-03-12T10:41:55;3.08;;;2.17;;
29402;SDS011;16382;59.942;30.472;2023-03-12T10:44:38;4.43;;;2.10;;
29402;SDS011;16382;59.942;30.472;2023-03-12T10:47:16;2.63;;;1.77;;
29402;SDS011;16382;59.942;30.472;2023-03-12T10:50:11;2.22;;;1.88;;
29402;SDS011;16382;59.942;30.472;2023-03-12T10:52:43;9.98;;;2.35;;
29402;SDS011;16382;59.942;30.472;2023-03-12T10:55:19;2.83;;;1.60;;
29402;SDS011;16382;59.942;30.472;2023-03-12T10:57:56;2.25;;;1.60;;
29402;SDS011;16382;59.942;30.472;2023-03-12T11:00:29;2.15;;;1.42;;
29402;SDS011;16382;59.942;30.472;2023-03-12T11:02:59;1.92;;;1.52;;
29402;SDS011;16382;59.942;30.472;2023-03-12T11:05:29;3.00;;;1.20;;
29402;SDS011;16382;59.942;30.472;2023-03-12T11:07:59;3.00;;;1.83;;
29402;SDS011;16382;59.942;30.472;2023-03-12T11:10:45;2.10;;;1.38;;
29402;SDS011;16382;59.942;30.472;2023-03-12T11:13:20;1.75;;;1.35;;
29402;SDS011;16382;59.942;30.472;2023-03-12T11:15:58;2.28;;;1.52;;
29402;SDS011;16382;59.942;30.472;2023-03-12T11:18:28;1.65;;;1.27;;
29402;SDS011;16382;59.942;30.472;2023-03-12T11:21:11;1.50;;;1.40;;
29402;SDS011;16382;59.942;30.472;2023-03-12T11:23:45;3.05;;;1.60;;
29402;SDS011;16382;59.942;30.472;2023-03-12T11:26:33;2.25;;;1.73;;
29402;SDS011;16382;59.942;30.472;2023-03-12T11:29:08;1.98;;;0.98;;
29402;SDS011;16382;59.942;30.472;2023-03-12T11:31:53;1.45;;;1.33;;
29402;SDS011;16382;59.942;30.472;2023-03-12T11:34:33;1.27;;;1.13;;
29402;SDS011;16382;59.942;30.472;2023-03-12T11:37:05;1.45;;;1.33;;
29402;SDS011;16382;59.942;30.472;2023-03-12T11:39:42;1.52;;;1.25;;
29402;SDS011;16382;59.942;30.472;2023-03-12T11:42:27;4.55;;;2.30;;
29402;SDS011;16382;59.942;30.472;2023-03-12T11:45:13;1.67;;;1.48;;
29402;SDS011;16382;59.942;30.472;2023-03-12T11:47:56;1.92;;;1.13;;
29402;SDS011;16382;59.942;30.472;2023-03-12T11:50:41;1.77;;;1.35;;
29402;SDS011;16382;59.942;30.472;2023-03-12T11:53:28;1.30;;;1.10;;
29402;SDS011;16382;59.942;30.472;2023-03-12T11:56:26;2.58;;;1.20;;
29402;SDS011;16382;59.942;30.472;2023-03-12T11:58:59;1.30;;;0.95;;
29402;SDS011;16382;59.942;30.472;2023-03-12T12:01:43;3.40;;;1.45;;
29402;SDS011;16382;59.942;30.472;2023-03-12T12:07:22;2.70;;;1.50;;
29402;SDS011;16382;59.942;30.472;2023-03-12T12:10:06;3.08;;;1.38;;
29402;SDS011;16382;59.942;30.472;2023-03-12T12:12:47;5.03;;;1.58;;
29402;SDS011;16382;59.942;30.472;2023-03-12T12:15:26;2.13;;;1.08;;
29402;SDS011;16382;59.942;30.472;2023-03-12T12:18:01;2.92;;;1.77;;
29402;SDS011;16382;59.942;30.472;2023-03-12T12:20:49;1.92;;;1.40;;
29402;SDS011;16382;59.942;30.472;2023-03-12T12:23:26;3.63;;;1.83;;
29402;SDS011;16382;59.942;30.472;2023-03-12T12:26:04;7.55;;;1.60;;
29402;SDS011;16382;59.942;30.472;2023-03-12T12:28:43;2.03;;;1.48;;
29402;SDS011;16382;59.942;30.472;2023-03-12T12:31:36;4.38;;;1.90;;
29402;SDS011;16382;59.942;30.472;2023-03-12T12:40:20;1.58;;;1.25;;
29402;SDS011;16382;59.942;30.472;2023-03-12T12:42:58;2.35;;;1.83;;
29402;SDS011;16382;59.942;30.472;2023-03-12T12:48:07;4.25;;;1.50;;
29402;SDS011;16382;59.942;30.472;2023-03-12T12:50:44;5.07;;;1.42;;
29402;SDS011;16382;59.942;30.472;2023-03-12T12:53:18;2.72;;;1.70;;
29402;SDS011;16382;59.942;30.472;2023-03-12T12:55:53;2.45;;;1.40;;
29402;SDS011;16382;59.942;30.472;2023-03-12T13:01:35;3.03;;;1.88;;
29402;SDS011;16382;59.942;30.472;2023-03-12T13:04:08;2.40;;;1.63;;
29402;SDS011;16382;59.942;30.472;2023-03-12T13:09:38;1.52;;;1.20;;
29402;SDS011;16382;59.942;30.472;2023-03-12T13:12:12;4.15;;;1.52;;
29402;SDS011;16382;59.942;30.472;2023-03-12T13:14:46;3.17;;;1.73;;
29402;SDS011;16382;59.942;30.472;2023-03-12T13:17:19;2.08;;;1.52;;
29402;SDS011;16382;59.942;30.472;2023-03-12T13:19:52;1.90;;;1.50;;
29402;SDS011;16382;59.942;30.472;2023-03-12T13:22:40;2.65;;;1.42;;
29402;SDS011;16382;59.942;30.472;2023-03-12T13:25:35;4.07;;;1.10;;
29402;SDS011;16382;59.942;30.472;2023-03-12T13:28:29;4.75;;;1.55;;
29402;SDS011;16382;59.942;30.472;2023-03-12T13:37:19;2.20;;;1.52;;
29402;SDS011;16382;59.942;30.472;2023-03-12T13:39:58;2.17;;;1.33;;
29402;SDS011;16382;59.942;30.472;2023-03-12T13:42:37;3.80;;;2.03;;
29402;SDS011;16382;59.942;30.472;2023-03-12T13:45:20;2.55;;;1.75;;
29402;SDS011;16382;59.942;30.472;2023-03-12T13:47:52;3.85;;;1.80;;
29402;SDS011;16382;59.942;30.472;2023-03-12T13:50:25;4.35;;;1.20;;
29402;SDS011;16382;59.942;30.472;2023-03-12T13:52:59;2.85;;;2.13;;
29402;SDS011;16382;59.942;30.472;2023-03-12T13:55:30;2.95;;;1.88;;
29402;SDS011;16382;59.942;30.472;2023-03-12T13:58:03;2.95;;;1.40;;
29402;SDS011;16382;59.942;30.472;2023-03-12T14:00:47;3.08;;;1.30;;
29402;SDS011;16382;59.942;30.472;2023-03-12T14:03:34;3.20;;;1.48;;
29402;SDS011;16382;59.942;30.472;2023-03-12T14:06:21;1.80;;;1.38;;
29402;SDS011;16382;59.942;30.472;2023-03-12T14:09:22;3.42;;;1.35;;
29402;SDS011;16382;59.942;30.472;2023-03-12T14:12:11;1.92;;;1.20;;
29402;SDS011;16382;59.942;30.472;2023-03-12T14:17:53;2.30;;;1.58;;
29402;SDS011;16382;59.942;30.472;2023-03-12T14:20:24;3.10;;;1.80;;
29402;SDS011;16382;59.942;30.472;2023-03-12T14:22:53;1.88;;;1.00;;
29402;SDS011;16382;59.942;30.472;2023-03-12T14:25:28;2.63;;;1.05;;
29402;SDS011;16382;59.942;30.472;2023-03-12T14:28:01;1.98;;;1.23;;
29402;SDS011;16382;59.942;30.472;2023-03-12T14:30:36;2.25;;;1.00;;
29402;SDS011;16382;59.942;30.472;2023-03-12T14:33:11;1.73;;;1.30;;
29402;SDS011;16382;59.942;30.472;2023-03-12T14:35:43;2.25;;;1.38;;
29402;SDS011;16382;59.942;30.472;2023-03-12T14:38:16;2.75;;;1.20;;
29402;SDS011;16382;59.942;30.472;2023-03-12T14:40:52;2.13;;;1.10;;
29402;SDS011;16382;59.942;30.472;2023-03-12T14:43:26;3.90;;;1.52;;
29402;SDS011;16382;59.942;30.472;2023-03-12T14:45:58;3.42;;;1.10;;
29402;SDS011;16382;59.942;30.472;2023-03-12T14:48:29;2.78;;;1.30;;
29402;SDS011;16382;59.942;30.472;2023-03-12T14:50:59;4.13;;;1.33;;
29402;SDS011;16382;59.942;30.472;2023-03-12T14:53:30;1.25;;;1.13;;
29402;SDS011;16382;59.942;30.472;2023-03-12T14:56:04;4.03;;;1.40;;
29402;SDS011;16382;59.942;30.472;2023-03-12T14:58:34;1.92;;;1.17;;
29402;SDS011;16382;59.942;30.472;2023-03-12T15:01:14;1.73;;;1.30;;
29402;SDS011;16382;59.942;30.472;2023-03-12T15:03:47;3.08;;;1.38;;
29402;SDS011;16382;59.942;30.472;2023-03-12T15:06:19;2.47;;;1.58;;
29402;SDS011;16382;59.942;30.472;2023-03-12T15:08:54;3.50;;;1.38;;
29402;SDS011;16382;59.942;30.472;2023-03-12T15:11:22;3.28;;;1.27;;
29402;SDS011;16382;59.942;30.472;2023-03-12T15:13:53;3.70;;;0.73;;
29402;SDS011;16382;59.942;30.472;2023-03-12T15:16:29;1.60;;;1.00;;
29402;SDS011;16382;59.942;30.472;2023-03-12T15:18:57;1.65;;;0.90;;
29402;SDS011;16382;59.942;30.472;2023-03-12T15:21:25;2.40;;;0.90;;
29402;SDS011;16382;59.942;30.472;2023-03-12T15:23:53;1.63;;;1.10;;
29402;SDS011;16382;59.942;30.472;2023-03-12T15:26:26;1.63;;;0.98;;
29402;SDS011;16382;59.942;30.472;2023-03-12T15:28:56;2.42;;;1.23;;
29402;SDS011;16382;59.942;30.472;2023-03-12T15:31:26;0.82;;;0.75;;